Time,TemperatureF,DewpointF,PressureIn,WindDirection,WindDirectionDegrees,WindSpeedMPH,WindSpeedGustMPH,Humidity,HourlyPrecipIn,Conditions,Clouds,dailyrainin,SolarRadiationWatts/m^2,SoftwareType,DateUTC
2013-04-03 00:02:00,43.0,41.0,-100.00,East,81,6.0,11.0,91,0.00,,,0.57,0.000000,,2013-04-03 05:02:00,
2013-04-03 00:32:00,43.0,41.0,-100.00,East,81,6.0,11.0,91,0.00,,,0.57,0.000000,,2013-04-03 05:32:00,
2013-04-03 00:42:00,43.0,41.0,-100.00,East,81,6.0,11.0,91,0.00,,,0.57,0.000000,,2013-04-03 05:42:00,
2013-04-03 00:52:00,43.0,41.0,-100.00,East,81,6.0,11.0,91,0.00,,,0.57,0.000000,,2013-04-03 05:52:00,
2013-04-03 01:02:00,42.0,39.0,-100.00,East,81,9.0,19.0,90,0.00,,,0.57,0.000000,,2013-04-03 06:02:00,
2013-04-03 01:22:00,42.0,39.0,-100.00,East,81,9.0,19.0,90,0.00,,,0.57,0.000000,,2013-04-03 06:22:00,
2013-04-03 01:32:00,42.0,39.0,-100.00,East,81,9.0,19.0,90,0.00,,,0.57,0.000000,,2013-04-03 06:32:00,
2013-04-03 01:42:00,42.0,39.0,-100.00,East,81,9.0,19.0,90,0.00,,,0.57,0.000000,,2013-04-03 06:42:00,
2013-04-03 01:52:00,42.0,39.0,-100.00,East,81,9.0,19.0,90,0.00,,,0.57,0.000000,,2013-04-03 06:52:00,
2013-04-03 02:02:00,42.0,39.0,-100.00,ENE,64,7.0,17.0,89,0.00,,,0.57,0.000000,,2013-04-03 07:02:00,
2013-04-03 02:23:00,42.0,39.0,-100.00,ENE,64,7.0,17.0,89,0.00,,,0.57,0.000000,,2013-04-03 07:23:00,
2013-04-03 02:33:00,42.0,39.0,-100.00,ENE,64,7.0,17.0,89,0.00,,,0.57,0.000000,,2013-04-03 07:33:00,
2013-04-03 02:42:00,42.0,39.0,-100.00,ENE,64,7.0,17.0,89,0.00,,,0.57,0.000000,,2013-04-03 07:42:00,
2013-04-03 02:53:00,42.0,39.0,-100.00,ENE,64,7.0,17.0,89,0.00,,,0.57,0.000000,,2013-04-03 07:53:00,
2013-04-03 03:02:00,43.0,39.0,-100.00,ENE,70,7.0,15.0,87,0.00,,,0.57,0.000000,,2013-04-03 08:02:00,
2013-04-03 03:33:00,43.0,39.0,-100.00,ENE,70,7.0,15.0,87,0.00,,,0.57,0.000000,,2013-04-03 08:33:00,
2013-04-03 03:43:00,43.0,39.0,-100.00,ENE,70,7.0,15.0,87,0.00,,,0.57,0.000000,,2013-04-03 08:43:00,
2013-04-03 03:52:00,43.0,39.0,-100.00,ENE,70,7.0,15.0,87,0.00,,,0.57,0.000000,,2013-04-03 08:52:00,
2013-04-03 04:02:00,43.0,39.0,-100.00,ENE,76,8.0,15.0,86,0.00,,,0.57,0.000000,,2013-04-03 09:02:00,
2013-04-03 04:33:00,43.0,39.0,-100.00,ENE,76,8.0,15.0,86,0.00,,,0.57,0.000000,,2013-04-03 09:33:00,
2013-04-03 04:43:00,43.0,39.0,-100.00,ENE,76,8.0,15.0,86,0.00,,,0.57,0.000000,,2013-04-03 09:43:00,
2013-04-03 04:53:00,43.0,39.0,-100.00,ENE,76,8.0,15.0,86,0.00,,,0.57,0.000000,,2013-04-03 09:53:00,
2013-04-03 05:02:00,43.0,39.0,-100.00,ENE,78,7.0,13.0,85,0.00,,,0.57,0.000000,,2013-04-03 10:02:00,
2013-04-03 05:22:00,43.0,39.0,-100.00,ENE,78,7.0,13.0,85,0.00,,,0.57,0.000000,,2013-04-03 10:22:00,
2013-04-03 05:33:00,43.0,39.0,-100.00,ENE,78,7.0,13.0,85,0.00,,,0.57,0.000000,,2013-04-03 10:33:00,
2013-04-03 05:43:00,43.0,39.0,-100.00,ENE,78,7.0,13.0,85,0.00,,,0.57,0.000000,,2013-04-03 10:43:00,
2013-04-03 05:53:00,43.0,39.0,-100.00,ENE,78,7.0,13.0,85,0.00,,,0.57,0.000000,,2013-04-03 10:53:00,
2013-04-03 06:02:00,43.0,38.0,-100.00,ENE,70,8.0,13.0,83,0.00,,,0.57,0.000000,,2013-04-03 11:02:00,
2013-04-03 06:23:00,43.0,38.0,-100.00,ENE,70,8.0,13.0,83,0.00,,,0.57,0.000000,,2013-04-03 11:23:00,
2013-04-03 06:33:00,43.0,38.0,-100.00,ENE,70,8.0,13.0,83,0.00,,,0.57,0.000000,,2013-04-03 11:33:00,
2013-04-03 06:42:00,43.0,38.0,-100.00,ENE,70,8.0,13.0,83,0.00,,,0.57,0.000000,,2013-04-03 11:42:00,
2013-04-03 06:53:00,43.0,38.0,-100.00,ENE,70,8.0,13.0,83,0.00,,,0.57,0.000000,,2013-04-03 11:53:00,
2013-04-03 07:02:00,43.0,37.0,-100.00,ENE,78,8.0,14.0,78,0.00,,,0.57,0.000000,,2013-04-03 12:02:00,
2013-04-03 07:22:00,43.0,37.0,-100.00,ENE,78,8.0,14.0,78,0.00,,,0.57,0.000000,,2013-04-03 12:22:00,
2013-04-03 07:33:00,43.0,37.0,-100.00,ENE,78,8.0,14.0,78,0.00,,,0.57,0.000000,,2013-04-03 12:33:00,
2013-04-03 07:42:00,43.0,37.0,-100.00,ENE,78,8.0,14.0,78,0.00,,,0.57,0.000000,,2013-04-03 12:42:00,
2013-04-03 07:52:00,43.0,37.0,-100.00,ENE,78,8.0,14.0,78,0.00,,,0.57,0.000000,,2013-04-03 12:52:00,
2013-04-03 08:02:00,43.0,35.0,-100.00,ENE,77,7.0,15.0,72,0.00,,,0.57,14.000000,,2013-04-03 13:02:00,
2013-04-03 08:32:00,43.0,35.0,-100.00,ENE,77,7.0,15.0,72,0.00,,,0.57,14.000000,,2013-04-03 13:32:00,
2013-04-03 08:42:00,43.0,35.0,-100.00,ENE,77,7.0,15.0,72,0.00,,,0.57,14.000000,,2013-04-03 13:42:00,
2013-04-03 08:52:00,43.0,35.0,-100.00,ENE,77,7.0,15.0,72,0.00,,,0.57,14.000000,,2013-04-03 13:52:00,
2013-04-03 09:02:00,44.0,34.0,-100.00,ENE,69,8.0,15.0,68,0.00,,,0.57,48.000000,,2013-04-03 14:02:00,
2013-04-03 09:32:00,44.0,34.0,-100.00,ENE,69,8.0,15.0,68,0.00,,,0.57,48.000000,,2013-04-03 14:32:00,
2013-04-03 09:43:00,44.0,34.0,-100.00,ENE,69,8.0,15.0,68,0.00,,,0.57,48.000000,,2013-04-03 14:43:00,
2013-04-03 09:52:00,44.0,34.0,-100.00,ENE,69,8.0,15.0,68,0.00,,,0.57,48.000000,,2013-04-03 14:52:00,
2013-04-03 10:02:00,45.0,35.0,-100.00,ENE,69,8.0,15.0,67,0.00,,,0.57,93.000000,,2013-04-03 15:02:00,
2013-04-03 10:33:00,45.0,35.0,-100.00,ENE,69,8.0,15.0,67,0.00,,,0.57,93.000000,,2013-04-03 15:33:00,
2013-04-03 10:43:00,45.0,35.0,-100.00,ENE,69,8.0,15.0,67,0.00,,,0.57,93.000000,,2013-04-03 15:43:00,
2013-04-03 10:53:00,45.0,35.0,-100.00,ENE,69,8.0,15.0,67,0.00,,,0.57,93.000000,,2013-04-03 15:53:00,
2013-04-03 11:02:00,46.0,35.0,-100.00,ENE,68,9.0,19.0,65,0.00,,,0.57,182.000000,,2013-04-03 16:02:00,
2013-04-03 11:33:00,46.0,35.0,-100.00,ENE,68,9.0,19.0,65,0.00,,,0.57,182.000000,,2013-04-03 16:33:00,
2013-04-03 11:44:00,46.0,35.0,-100.00,ENE,68,9.0,19.0,65,0.00,,,0.57,182.000000,,2013-04-03 16:44:00,
2013-04-03 11:53:00,46.0,35.0,-100.00,ENE,68,9.0,19.0,65,0.00,,,0.57,182.000000,,2013-04-03 16:53:00,
2013-04-03 12:02:00,50.0,38.0,-100.00,East,79,7.0,19.0,62,0.00,,,0.57,387.000000,,2013-04-03 17:02:00,
2013-04-03 12:34:00,50.0,38.0,-100.00,East,79,7.0,19.0,62,0.00,,,0.57,387.000000,,2013-04-03 17:34:00,
2013-04-03 12:46:00,50.0,38.0,-100.00,East,79,7.0,19.0,62,0.00,,,0.57,387.000000,,2013-04-03 17:46:00,
2013-04-03 12:54:00,50.0,38.0,-100.00,East,79,7.0,19.0,62,0.00,,,0.57,387.000000,,2013-04-03 17:54:00,
2013-04-03 13:02:00,51.0,34.0,-100.00,ENE,78,8.0,17.0,52,0.00,,,0.57,545.000000,,2013-04-03 18:02:00,
2013-04-03 13:34:00,51.0,34.0,-100.00,ENE,78,8.0,17.0,52,0.00,,,0.57,545.000000,,2013-04-03 18:34:00,
2013-04-03 13:43:00,51.0,34.0,-100.00,ENE,78,8.0,17.0,52,0.00,,,0.57,545.000000,,2013-04-03 18:43:00,
2013-04-03 13:52:00,51.0,34.0,-100.00,ENE,78,8.0,17.0,52,0.00,,,0.57,545.000000,,2013-04-03 18:52:00,
2013-04-03 14:02:00,52.0,34.0,-100.00,East,83,9.0,15.0,50,0.00,,,0.56,367.000000,,2013-04-03 19:02:00,
2013-04-03 14:32:00,52.0,34.0,-100.00,East,83,9.0,15.0,50,0.00,,,0.56,367.000000,,2013-04-03 19:32:00,
2013-04-03 14:42:00,52.0,34.0,-100.00,East,83,9.0,15.0,50,0.00,,,0.56,367.000000,,2013-04-03 19:42:00,
2013-04-03 14:52:00,52.0,34.0,-100.00,East,83,9.0,15.0,50,0.00,,,0.56,367.000000,,2013-04-03 19:52:00,
2013-04-03 15:02:00,51.0,34.0,-100.00,ENE,74,7.0,16.0,51,0.00,,,0.56,220.000000,,2013-04-03 20:02:00,
2013-04-03 15:33:00,51.0,34.0,-100.00,ENE,74,7.0,16.0,51,0.00,,,0.56,220.000000,,2013-04-03 20:33:00,
2013-04-03 15:42:00,51.0,34.0,-100.00,ENE,74,7.0,16.0,51,0.00,,,0.56,220.000000,,2013-04-03 20:42:00,
2013-04-03 15:53:00,51.0,34.0,-100.00,ENE,74,7.0,16.0,51,0.00,,,0.56,220.000000,,2013-04-03 20:53:00,
2013-04-03 16:02:00,50.0,31.0,-100.00,ENE,77,7.0,12.0,48,0.00,,,-99.99,130.000000,,2013-04-03 21:02:00,
2013-04-03 16:33:00,50.0,31.0,-100.00,ENE,77,7.0,12.0,48,0.00,,,-99.99,130.000000,,2013-04-03 21:33:00,
2013-04-03 16:42:00,50.0,31.0,-100.00,ENE,77,7.0,12.0,48,0.00,,,-99.99,130.000000,,2013-04-03 21:42:00,
2013-04-03 16:52:00,50.0,31.0,-100.00,ENE,77,7.0,12.0,48,0.00,,,-99.99,130.000000,,2013-04-03 21:52:00,
2013-04-03 17:02:00,50.0,31.0,-100.00,ENE,63,8.0,14.0,47,0.00,,,0.56,132.000000,,2013-04-03 22:02:00,
2013-04-03 17:33:00,50.0,31.0,-100.00,ENE,63,8.0,14.0,47,0.00,,,0.56,132.000000,,2013-04-03 22:33:00,
2013-04-03 17:42:00,50.0,31.0,-100.00,ENE,63,8.0,14.0,47,0.00,,,0.56,132.000000,,2013-04-03 22:42:00,
2013-04-03 17:52:00,50.0,31.0,-100.00,ENE,63,8.0,14.0,47,0.00,,,0.56,132.000000,,2013-04-03 22:52:00,
2013-04-03 18:02:00,49.0,29.0,-100.00,ENE,75,7.0,14.0,46,0.00,,,0.56,102.000000,,2013-04-03 23:02:00,
2013-04-03 18:33:00,49.0,29.0,-100.00,ENE,75,7.0,14.0,46,0.00,,,0.56,102.000000,,2013-04-03 23:33:00,
2013-04-03 18:43:00,49.0,29.0,-100.00,ENE,75,7.0,14.0,46,0.00,,,0.56,102.000000,,2013-04-03 23:43:00,
2013-04-03 18:54:00,49.0,29.0,-100.00,ENE,75,7.0,14.0,46,0.00,,,0.56,102.000000,,2013-04-03 23:54:00,
2013-04-03 19:02:00,47.0,29.0,-100.00,ENE,68,6.0,12.0,50,0.00,,,0.56,38.000000,,2013-04-04 00:02:00,
2013-04-03 19:32:00,47.0,29.0,-100.00,ENE,68,6.0,12.0,50,0.00,,,0.56,38.000000,,2013-04-04 00:32:00,
2013-04-03 19:43:00,47.0,29.0,-100.00,ENE,68,6.0,12.0,50,0.00,,,0.56,38.000000,,2013-04-04 00:43:00,
2013-04-03 19:52:00,47.0,29.0,-100.00,ENE,68,6.0,12.0,50,0.00,,,0.56,38.000000,,2013-04-04 00:52:00,
2013-04-03 20:02:00,46.0,32.0,-100.00,ENE,60,6.0,13.0,58,0.00,,,0.33,4.000000,,2013-04-04 01:02:00,
2013-04-03 20:32:00,46.0,32.0,-100.00,ENE,60,6.0,13.0,58,0.00,,,0.33,4.000000,,2013-04-04 01:32:00,
2013-04-03 20:43:00,46.0,32.0,-100.00,ENE,60,6.0,13.0,58,0.00,,,0.33,4.000000,,2013-04-04 01:43:00,
2013-04-03 20:52:00,46.0,32.0,-100.00,ENE,60,6.0,13.0,58,0.00,,,0.33,4.000000,,2013-04-04 01:52:00,
2013-04-03 21:02:00,45.0,30.0,-100.00,ENE,77,4.0,13.0,56,0.00,,,0.11,0.000000,,2013-04-04 02:02:00,
2013-04-03 21:22:00,45.0,30.0,-100.00,ENE,77,4.0,13.0,56,0.00,,,0.11,0.000000,,2013-04-04 02:22:00,
2013-04-03 21:32:00,45.0,30.0,-100.00,ENE,77,4.0,13.0,56,0.00,,,0.11,0.000000,,2013-04-04 02:32:00,
2013-04-03 21:42:00,45.0,30.0,-100.00,ENE,77,4.0,13.0,56,0.00,,,0.11,0.000000,,2013-04-04 02:42:00,
2013-04-03 21:52:00,45.0,30.0,-100.00,ENE,77,4.0,13.0,56,0.00,,,0.11,0.000000,,2013-04-04 02:52:00,
2013-04-03 22:02:00,45.0,33.0,-100.00,East,79,4.0,6.0,63,0.00,,,0.01,0.000000,,2013-04-04 03:02:00,
2013-04-03 22:23:00,45.0,33.0,-100.00,East,79,4.0,6.0,63,0.00,,,0.01,0.000000,,2013-04-04 03:23:00,
2013-04-03 22:34:00,45.0,33.0,-100.00,East,79,4.0,6.0,63,0.00,,,0.01,0.000000,,2013-04-04 03:34:00,
2013-04-03 22:45:00,45.0,33.0,-100.00,East,79,4.0,6.0,63,0.00,,,0.01,0.000000,,2013-04-04 03:45:00,
2013-04-03 22:53:00,45.0,33.0,-100.00,East,79,4.0,6.0,63,0.00,,,0.01,0.000000,,2013-04-04 03:53:00,
2013-04-03 23:02:00,45.0,34.0,-100.00,North,358,1.0,4.0,66,0.00,,,0.00,0.000000,,2013-04-04 04:02:00,
2013-04-03 23:34:00,45.0,34.0,-100.00,North,358,1.0,4.0,66,0.00,,,0.00,0.000000,,2013-04-04 04:34:00,
2013-04-03 23:43:00,45.0,34.0,-100.00,North,358,1.0,4.0,66,0.00,,,0.00,0.000000,,2013-04-04 04:43:00,
2013-04-03 23:53:00,45.0,34.0,-100.00,North,358,1.0,4.0,66,0.00,,,0.00,0.000000,,2013-04-04 04:53:00,